Time;durP1;ratioP1;P1;durP2;ratioP2;P2;SDS_P1;SDS_P2;PMS_P1;PMS_P2;Temp;Humidity;BMP_temperature;BMP_pressure;BME280_temperature;BME280_humidity;BME280_pressure;Samples;Min_cycle;Max_cycle;Signal;HPM_P1;HPM_P2
2022/10/17 00:01:53;;;;;;;3.50;2.57;;;;;;;;;;5095476;28;20459;-69
2022/10/17 00:04:20;;;;;;;5.00;3.10;;;;;;;;;;5096204;28;20448;-69
2022/10/17 00:06:47;;;;;;;8.00;3.50;;;;;;;;;;5095425;28;20456;-69
2022/10/17 00:09:14;;;;;;;6.83;3.80;;;;;;;;;;5095627;28;20451;-69
2022/10/17 00:11:42;;;;;;;4.43;4.03;;;;;;;;;;5095070;28;20581;-69
2022/10/17 00:14:09;;;;;;;5.43;3.20;;;;;;;;;;5095031;28;20455;-69
2022/10/17 00:16:36;;;;;;;4.93;3.37;;;;;;;;;;5095646;28;20444;-69
2022/10/17 00:19:03;;;;;;;5.57;3.20;;;;;;;;;;5095709;28;20860;-69
2022/10/17 00:21:30;;;;;;;3.80;3.40;;;;;;;;;;5095625;28;20880;-68
2022/10/17 00:23:57;;;;;;;5.70;3.33;;;;;;;;;;5095653;28;20526;-69
2022/10/17 00:26:24;;;;;;;7.93;3.10;;;;;;;;;;5096145;28;20832;-69
2022/10/17 00:28:53;;;;;;;6.90;3.40;;;;;;;;;;5095865;28;20451;-69
2022/10/17 00:31:21;;;;;;;5.20;3.70;;;;;;;;;;5095888;28;20456;-69
2022/10/17 00:33:48;;;;;;;6.77;3.60;;;;;;;;;;5096215;28;20448;-70
2022/10/17 00:36:16;;;;;;;4.70;3.30;;;;;;;;;;5095180;28;20783;-69
2022/10/17 00:38:43;;;;;;;5.20;3.27;;;;;;;;;;5095404;28;20448;-70
2022/10/17 00:41:11;;;;;;;6.40;3.40;;;;;;;;;;5095905;28;20459;-69
2022/10/17 00:43:52;;;;;;;5.20;3.70;;;;;;;;;;5095429;28;20487;-69
2022/10/17 00:46:22;;;;;;;5.37;3.50;;;;;;;;;;5095296;28;20865;-69
2022/10/17 00:48:51;;;;;;;7.43;4.23;;;;;;;;;;5095354;28;20443;-68
2022/10/17 00:51:19;;;;;;;4.90;3.33;;;;;;;;;;5095604;28;20867;-69
2022/10/17 00:53:46;;;;;;;5.87;3.60;;;;;;;;;;5095390;28;20482;-69
2022/10/17 00:56:14;;;;;;;5.60;3.60;;;;;;;;;;5095312;28;20844;-69
2022/10/17 00:58:40;;;;;;;6.23;3.20;;;;;;;;;;5095840;28;20443;-69
2022/10/17 01:01:11;;;;;;;5.07;3.73;;;;;;;;;;5095486;28;20447;-68
2022/10/17 01:03:38;;;;;;;4.83;3.80;;;;;;;;;;5094876;28;20483;-69
2022/10/17 01:06:07;;;;;;;5.53;3.20;;;;;;;;;;5095442;28;20501;-69
2022/10/17 01:08:34;;;;;;;4.50;3.87;;;;;;;;;;5095192;28;20467;-69
2022/10/17 01:11:04;;;;;;;4.60;3.13;;;;;;;;;;5095887;28;20542;-69
2022/10/17 01:13:37;;;;;;;4.57;3.63;;;;;;;;;;5095002;28;20708;-69
2022/10/17 01:16:09;;;;;;;4.20;3.03;;;;;;;;;;5094741;28;20867;-69
2022/10/17 01:18:41;;;;;;;9.63;3.67;;;;;;;;;;5095567;28;20482;-69
2022/10/17 01:21:15;;;;;;;6.63;3.43;;;;;;;;;;5099022;28;20456;-69
2022/10/17 01:23:59;;;;;;;7.40;4.43;;;;;;;;;;5098507;28;20479;-69
2022/10/17 01:26:31;;;;;;;9.87;4.07;;;;;;;;;;5098837;28;20461;-69
2022/10/17 01:29:05;;;;;;;7.53;4.13;;;;;;;;;;5098257;28;20452;-69
2022/10/17 01:31:42;;;;;;;9.00;3.03;;;;;;;;;;5098747;28;20454;-69
2022/10/17 01:34:11;;;;;;;5.63;3.17;;;;;;;;;;5098810;28;20459;-69
2022/10/17 01:36:43;;;;;;;4.70;2.93;;;;;;;;;;5098323;28;20876;-69
2022/10/17 01:39:15;;;;;;;5.23;3.10;;;;;;;;;;5098595;28;20786;-69
2022/10/17 01:41:44;;;;;;;5.23;3.50;;;;;;;;;;5099152;28;20460;-69
2022/10/17 01:44:14;;;;;;;4.50;3.23;;;;;;;;;;5098668;28;20491;-69
2022/10/17 01:46:44;;;;;;;5.47;3.97;;;;;;;;;;5098129;28;20454;-69
2022/10/17 01:49:14;;;;;;;3.47;3.13;;;;;;;;;;5098602;28;20479;-69
2022/10/17 01:51:43;;;;;;;6.53;3.10;;;;;;;;;;5078396;28;20891;-69
2022/10/17 01:54:12;;;;;;;5.87;3.20;;;;;;;;;;5077929;28;20452;-69
2022/10/17 01:56:40;;;;;;;4.37;3.00;;;;;;;;;;5077740;28;20845;-69
2022/10/17 01:59:14;;;;;;;4.83;3.77;;;;;;;;;;5077202;28;20445;-69
2022/10/17 02:01:44;;;;;;;5.10;3.30;;;;;;;;;;5077870;28;20929;-69
2022/10/17 02:04:11;;;;;;;6.33;4.50;;;;;;;;;;5079343;28;20522;-69
2022/10/17 02:06:38;;;;;;;5.70;4.43;;;;;;;;;;5098333;28;20447;-69
2022/10/17 02:09:17;;;;;;;8.60;4.43;;;;;;;;;;5098166;28;21030;-69
2022/10/17 02:11:47;;;;;;;4.77;3.60;;;;;;;;;;5098751;28;20479;-70
2022/10/17 02:14:21;;;;;;;4.23;3.20;;;;;;;;;;5097208;28;20599;-69
2022/10/17 02:16:53;;;;;;;4.73;3.93;;;;;;;;;;5097076;28;20893;-70
2022/10/17 02:19:44;;;;;;;7.50;3.77;;;;;;;;;;5097855;28;20494;-69
2022/10/17 02:22:17;;;;;;;7.97;4.00;;;;;;;;;;5077821;28;20580;-69
2022/10/17 02:24:47;;;;;;;7.33;3.77;;;;;;;;;;5098082;28;20456;-69
2022/10/17 02:27:21;;;;;;;5.13;2.80;;;;;;;;;;5097921;28;20499;-69
2022/10/17 02:29:50;;;;;;;4.40;3.33;;;;;;;;;;5096817;28;20451;-69
2022/10/17 02:32:21;;;;;;;6.00;3.33;;;;;;;;;;5096877;28;20477;-69
2022/10/17 02:34:50;;;;;;;7.07;4.10;;;;;;;;;;5097536;28;20467;-69
2022/10/17 02:37:19;;;;;;;5.33;3.63;;;;;;;;;;5097685;28;21017;-70
2022/10/17 02:39:57;;;;;;;5.93;3.67;;;;;;;;;;5097275;28;20489;-69
2022/10/17 02:42:25;;;;;;;5.57;3.57;;;;;;;;;;5097115;28;20482;-69
2022/10/17 02:44:53;;;;;;;6.40;2.47;;;;;;;;;;5097134;28;20473;-69
2022/10/17 02:47:23;;;;;;;4.73;2.83;;;;;;;;;;5097108;28;20450;-69
2022/10/17 02:49:51;;;;;;;5.63;3.40;;;;;;;;;;5096689;28;20474;-70
2022/10/17 02:52:20;;;;;;;3.07;2.40;;;;;;;;;;5097497;28;20443;-70
2022/10/17 02:54:50;;;;;;;3.37;2.80;;;;;;;;;;5097475;28;20471;-69
2022/10/17 02:57:20;;;;;;;4.50;3.57;;;;;;;;;;5097364;28;20496;-69
2022/10/17 02:59:47;;;;;;;3.30;2.50;;;;;;;;;;5095728;28;20747;-70
2022/10/17 03:02:14;;;;;;;3.33;2.60;;;;;;;;;;5096657;28;20484;-69
2022/10/17 03:04:44;;;;;;;3.73;2.80;;;;;;;;;;5097118;28;20448;-69
2022/10/17 03:07:11;;;;;;;5.23;3.23;;;;;;;;;;5096459;28;20482;-70
2022/10/17 03:09:38;;;;;;;7.90;3.00;;;;;;;;;;5096769;28;20800;-70
2022/10/17 03:12:05;;;;;;;3.07;2.77;;;;;;;;;;5097374;28;20447;-69
2022/10/17 03:14:32;;;;;;;3.80;2.73;;;;;;;;;;5096430;28;20452;-70
2022/10/17 03:16:59;;;;;;;3.40;2.93;;;;;;;;;;5076670;28;20444;-69
2022/10/17 03:19:26;;;;;;;4.40;3.10;;;;;;;;;;5075869;28;20468;-70
2022/10/17 03:21:57;;;;;;;2.73;2.43;;;;;;;;;;5076130;28;20452;-70
2022/10/17 03:24:24;;;;;;;3.10;2.50;;;;;;;;;;5076059;28;20492;-69
2022/10/17 03:26:53;;;;;;;3.00;2.70;;;;;;;;;;5079509;28;20444;-69
2022/10/17 03:29:20;;;;;;;5.27;2.70;;;;;;;;;;5096635;28;20462;-69
2022/10/17 03:31:47;;;;;;;4.57;2.80;;;;;;;;;;5096122;28;20448;-69
2022/10/17 03:34:17;;;;;;;2.93;2.63;;;;;;;;;;5096043;28;20576;-69
2022/10/17 03:36:44;;;;;;;4.97;2.40;;;;;;;;;;5096540;28;20475;-70
2022/10/17 03:39:12;;;;;;;2.80;2.00;;;;;;;;;;5095452;28;20447;-69
2022/10/17 03:41:39;;;;;;;3.43;1.83;;;;;;;;;;5096362;28;20864;-70
2022/10/17 03:44:06;;;;;;;4.60;2.20;;;;;;;;;;5096039;28;20538;-69
2022/10/17 03:46:33;;;;;;;6.33;2.30;;;;;;;;;;5095266;28;20444;-70
2022/10/17 03:49:00;;;;;;;2.67;2.23;;;;;;;;;;5096392;28;20901;-70
2022/10/17 03:51:30;;;;;;;3.17;2.30;;;;;;;;;;5095541;28;20594;-70
2022/10/17 03:53:57;;;;;;;5.20;1.97;;;;;;;;;;5086688;28;20477;-69
2022/10/17 03:56:25;;;;;;;3.23;2.80;;;;;;;;;;5092388;28;20463;-69
2022/10/17 03:58:52;;;;;;;3.00;1.60;;;;;;;;;;5095444;28;20880;-69
2022/10/17 04:01:19;;;;;;;2.60;1.80;;;;;;;;;;5095798;28;20458;-70
2022/10/17 04:03:49;;;;;;;4.13;2.30;;;;;;;;;;5096436;28;20487;-69
2022/10/17 04:06:22;;;;;;;3.47;1.93;;;;;;;;;;5094771;28;20485;-70
2022/10/17 04:08:52;;;;;;;5.60;1.90;;;;;;;;;;5095209;28;20460;-70
2022/10/17 04:11:20;;;;;;;5.70;1.97;;;;;;;;;;5095827;28;20443;-70
2022/10/17 04:13:48;;;;;;;4.00;2.00;;;;;;;;;;5076551;28;20832;-69
2022/10/17 04:16:16;;;;;;;3.50;2.53;;;;;;;;;;5074973;28;20591;-70
2022/10/17 04:18:43;;;;;;;5.90;1.90;;;;;;;;;;5073533;28;20807;-70
2022/10/17 04:21:13;;;;;;;2.37;1.97;;;;;;;;;;5075639;28;20460;-69
2022/10/17 04:23:40;;;;;;;2.57;1.87;;;;;;;;;;5086238;28;20483;-70
2022/10/17 04:26:08;;;;;;;3.00;1.90;;;;;;;;;;5095567;28;20448;-70
2022/10/17 04:28:36;;;;;;;4.00;1.97;;;;;;;;;;5095253;28;20494;-70
2022/10/17 04:31:12;;;;;;;3.53;2.00;;;;;;;;;;5095136;28;20490;-70
2022/10/17 04:33:39;;;;;;;3.50;2.10;;;;;;;;;;5094871;28;20596;-69
2022/10/17 04:36:07;;;;;;;3.17;1.80;;;;;;;;;;5093325;28;20586;-69
2022/10/17 04:38:34;;;;;;;3.70;1.60;;;;;;;;;;5094886;28;20455;-70
2022/10/17 04:41:02;;;;;;;7.77;2.20;;;;;;;;;;5094722;28;20562;-70
2022/10/17 04:43:29;;;;;;;4.83;1.73;;;;;;;;;;5094542;28;20483;-69
2022/10/17 04:45:59;;;;;;;5.00;1.77;;;;;;;;;;5094821;28;20444;-71
2022/10/17 04:48:29;;;;;;;2.43;1.53;;;;;;;;;;5094631;28;20751;-70
2022/10/17 04:51:00;;;;;;;5.30;1.73;;;;;;;;;;5094823;28;20483;-69
2022/10/17 04:53:31;;;;;;;4.77;2.30;;;;;;;;;;5094050;28;20504;-69
2022/10/17 04:55:58;;;;;;;3.00;1.70;;;;;;;;;;5097784;28;20746;-70
2022/10/17 04:58:25;;;;;;;2.80;1.80;;;;;;;;;;5097427;28;20848;-69
2022/10/17 05:00:52;;;;;;;3.70;2.07;;;;;;;;;;5097785;28;20454;-70
2022/10/17 05:03:19;;;;;;;2.40;1.70;;;;;;;;;;5098160;28;20498;-70
2022/10/17 05:05:47;;;;;;;4.50;2.67;;;;;;;;;;5096712;28;20556;-70
2022/10/17 05:08:14;;;;;;;5.80;2.27;;;;;;;;;;5096899;28;20444;-69
2022/10/17 05:10:42;;;;;;;2.57;1.80;;;;;;;;;;5097134;28;20447;-69
2022/10/17 05:13:09;;;;;;;2.83;2.00;;;;;;;;;;5096949;28;20458;-70
2022/10/17 05:15:40;;;;;;;2.10;1.80;;;;;;;;;;5097449;28;20501;-70
2022/10/17 05:18:07;;;;;;;4.53;1.70;;;;;;;;;;5095972;28;20451;-70
2022/10/17 05:20:41;;;;;;;6.23;2.20;;;;;;;;;;5096222;28;20451;-71
2022/10/17 05:23:09;;;;;;;4.60;2.00;;;;;;;;;;5097182;28;20809;-70
2022/10/17 05:25:37;;;;;;;3.17;2.10;;;;;;;;;;5095810;28;20458;-70
2022/10/17 05:28:04;;;;;;;3.37;1.87;;;;;;;;;;5087135;28;20463;-70
2022/10/17 05:30:32;;;;;;;4.60;2.20;;;;;;;;;;5094313;28;20516;-71
2022/10/17 05:32:59;;;;;;;2.63;1.73;;;;;;;;;;5095222;28;20459;-70
2022/10/17 05:35:30;;;;;;;2.60;1.60;;;;;;;;;;5094013;28;20888;-71
2022/10/17 05:37:59;;;;;;;2.47;1.57;;;;;;;;;;5096864;28;20450;-69
2022/10/17 05:40:27;;;;;;;3.80;2.00;;;;;;;;;;5095893;28;20458;-69
2022/10/17 05:42:54;;;;;;;4.13;1.87;;;;;;;;;;5096995;28;20838;-69
2022/10/17 05:45:22;;;;;;;4.37;2.43;;;;;;;;;;5095247;28;20501;-70
2022/10/17 05:47:51;;;;;;;2.70;2.10;;;;;;;;;;5094387;28;20518;-69
2022/10/17 05:50:20;;;;;;;2.70;2.03;;;;;;;;;;5095453;28;20459;-69
2022/10/17 05:52:47;;;;;;;3.50;2.03;;;;;;;;;;5095695;28;20592;-70
2022/10/17 05:55:20;;;;;;;3.67;1.70;;;;;;;;;;5083182;28;20506;-70
2022/10/17 05:57:47;;;;;;;3.10;2.00;;;;;;;;;;5075470;28;20453;-70
2022/10/17 06:00:18;;;;;;;5.00;2.00;;;;;;;;;;5092456;28;20455;-70
2022/10/17 06:02:46;;;;;;;6.47;2.10;;;;;;;;;;5089327;28;20480;-70
2022/10/17 06:05:13;;;;;;;4.30;2.27;;;;;;;;;;5091469;28;21145;-70
2022/10/17 06:07:40;;;;;;;8.60;2.07;;;;;;;;;;5095686;28;20435;-70
2022/10/17 06:10:07;;;;;;;4.83;1.90;;;;;;;;;;5096075;28;20455;-69
2022/10/17 06:12:35;;;;;;;2.93;2.10;;;;;;;;;;5095671;28;20529;-69
2022/10/17 06:15:03;;;;;;;3.47;2.37;;;;;;;;;;5088544;28;20459;-69
2022/10/17 06:17:30;;;;;;;3.90;2.47;;;;;;;;;;5090576;28;20464;-69
2022/10/17 06:19:57;;;;;;;7.13;2.50;;;;;;;;;;5096436;28;20475;-69
2022/10/17 06:22:30;;;;;;;4.97;2.33;;;;;;;;;;5097000;28;20443;-69
2022/10/17 06:24:57;;;;;;;4.60;3.00;;;;;;;;;;5095310;28;20459;-70
2022/10/17 06:27:24;;;;;;;5.07;2.30;;;;;;;;;;5092704;28;21153;-69
2022/10/17 06:29:51;;;;;;;4.87;2.90;;;;;;;;;;5080385;28;20461;-69
2022/10/17 06:32:19;;;;;;;3.57;3.10;;;;;;;;;;5078612;28;20492;-69
2022/10/17 06:34:46;;;;;;;3.63;2.30;;;;;;;;;;5094205;28;20737;-69
2022/10/17 06:37:13;;;;;;;4.10;2.93;;;;;;;;;;5094216;28;20447;-69
2022/10/17 06:39:40;;;;;;;7.20;3.80;;;;;;;;;;5093906;28;20471;-69
2022/10/17 06:42:11;;;;;;;3.70;2.47;;;;;;;;;;5089821;28;20604;-68
2022/10/17 06:44:40;;;;;;;4.40;3.23;;;;;;;;;;5085430;28;20486;-69
2022/10/17 06:47:07;;;;;;;6.23;3.40;;;;;;;;;;5093869;28;20560;-68
2022/10/17 06:49:35;;;;;;;7.20;3.97;;;;;;;;;;5094302;28;20466;-69
2022/10/17 06:52:02;;;;;;;9.67;5.70;;;;;;;;;;5093404;28;20444;-70
2022/10/17 06:54:30;;;;;;;4.93;4.00;;;;;;;;;;5093207;28;20475;-69
2022/10/17 06:56:58;;;;;;;6.00;3.30;;;;;;;;;;5094476;28;20443;-69
2022/10/17 06:59:25;;;;;;;4.73;3.00;;;;;;;;;;5093098;28;20448;-69
2022/10/17 07:02:04;;;;;;;5.70;4.30;;;;;;;;;;5094645;28;20480;-70
2022/10/17 07:04:31;;;;;;;10.13;4.07;;;;;;;;;;5081238;28;20548;-70
2022/10/17 07:07:01;;;;;;;9.67;3.47;;;;;;;;;;5092243;28;20494;-69
2022/10/17 07:09:34;;;;;;;4.60;3.03;;;;;;;;;;5083427;28;20455;-70
2022/10/17 07:12:01;;;;;;;4.70;3.63;;;;;;;;;;5091610;28;20524;-69
2022/10/17 07:14:32;;;;;;;4.57;3.73;;;;;;;;;;5087751;28;20538;-69
2022/10/17 07:17:00;;;;;;;4.63;3.03;;;;;;;;;;5085381;28;20473;-69
2022/10/17 07:19:33;;;;;;;8.27;3.53;;;;;;;;;;5091062;28;20463;-70
2022/10/17 07:22:01;;;;;;;9.53;6.80;;;;;;;;;;5087512;28;20526;-70
2022/10/17 07:24:28;;;;;;;6.07;3.90;;;;;;;;;;5091039;28;20506;-70
2022/10/17 07:26:56;;;;;;;5.80;3.90;;;;;;;;;;5092711;28;20855;-69
2022/10/17 07:29:32;;;;;;;3.60;2.90;;;;;;;;;;5095468;28;20463;-69
2022/10/17 07:31:59;;;;;;;6.40;3.67;;;;;;;;;;5093639;28;20490;-68
2022/10/17 07:34:29;;;;;;;10.00;3.80;;;;;;;;;;5090545;28;20737;-68
2022/10/17 07:36:57;;;;;;;5.10;4.50;;;;;;;;;;5093023;28;20784;-70
2022/10/17 07:39:36;;;;;;;3.90;2.87;;;;;;;;;;5091623;28;20482;-70
2022/10/17 07:42:07;;;;;;;4.43;3.30;;;;;;;;;;5095855;28;20467;-71
2022/10/17 07:44:35;;;;;;;5.90;3.27;;;;;;;;;;5094132;28;20505;-69
2022/10/17 07:47:02;;;;;;;4.30;2.53;;;;;;;;;;5074403;28;20455;-70
2022/10/17 07:49:29;;;;;;;8.10;2.87;;;;;;;;;;5084248;28;20475;-69
2022/10/17 07:51:57;;;;;;;5.93;3.50;;;;;;;;;;5092949;28;20455;-72
2022/10/17 07:54:24;;;;;;;4.23;3.03;;;;;;;;;;5094019;28;20472;-70
2022/10/17 07:56:52;;;;;;;4.53;3.00;;;;;;;;;;5094495;28;20454;-69
2022/10/17 07:59:19;;;;;;;12.03;4.07;;;;;;;;;;5093416;28;20467;-70
2022/10/17 08:01:46;;;;;;;4.33;3.07;;;;;;;;;;5093795;28;20443;-68
2022/10/17 08:04:15;;;;;;;3.30;2.20;;;;;;;;;;5092913;28;20487;-69
2022/10/17 08:06:46;;;;;;;5.60;3.70;;;;;;;;;;5094581;28;20444;-68
2022/10/17 08:09:14;;;;;;;18.33;7.70;;;;;;;;;;5091146;28;20492;-68
2022/10/17 08:11:42;;;;;;;6.20;2.87;;;;;;;;;;5073526;28;20457;-68
2022/10/17 08:14:11;;;;;;;3.50;2.60;;;;;;;;;;5073531;28;20492;-67
2022/10/17 08:16:38;;;;;;;4.43;2.47;;;;;;;;;;5092554;28;20671;-69
2022/10/17 08:19:07;;;;;;;5.83;2.60;;;;;;;;;;5091132;28;20484;-69
2022/10/17 08:21:35;;;;;;;5.37;3.00;;;;;;;;;;5092222;28;20542;-69
2022/10/17 08:24:04;;;;;;;4.50;2.70;;;;;;;;;;5089733;28;20492;-68
2022/10/17 08:26:35;;;;;;;4.63;2.97;;;;;;;;;;5091183;28;20472;-69
2022/10/17 08:29:06;;;;;;;6.00;3.40;;;;;;;;;;5092133;28;20455;-68
2022/10/17 08:31:43;;;;;;;3.53;2.53;;;;;;;;;;5086089;28;20477;-67
2022/10/17 08:34:09;;;;;;;4.37;2.53;;;;;;;;;;5090839;28;20471;-68
2022/10/17 08:36:38;;;;;;;4.50;2.80;;;;;;;;;;5087956;28;20853;-70
2022/10/17 08:39:06;;;;;;;4.13;2.70;;;;;;;;;;5090993;28;20467;-70
2022/10/17 08:41:41;;;;;;;3.87;2.17;;;;;;;;;;5088378;28;20552;-70
2022/10/17 08:44:17;;;;;;;4.40;2.17;;;;;;;;;;5088407;28;20533;-70
2022/10/17 08:46:47;;;;;;;3.40;2.00;;;;;;;;;;5087341;28;20469;-71
2022/10/17 08:49:20;;;;;;;4.30;2.07;;;;;;;;;;5089300;28;20498;-71
2022/10/17 08:51:49;;;;;;;5.43;3.00;;;;;;;;;;5091617;28;20443;-70
2022/10/17 08:54:18;;;;;;;5.80;2.50;;;;;;;;;;5091561;28;20813;-72
2022/10/17 08:56:46;;;;;;;8.90;3.00;;;;;;;;;;5090493;28;20460;-70
2022/10/17 08:59:17;;;;;;;4.93;2.37;;;;;;;;;;5093056;28;20455;-70
2022/10/17 09:01:52;;;;;;;5.17;2.63;;;;;;;;;;5088992;28;20451;-71
2022/10/17 09:04:29;;;;;;;5.17;2.17;;;;;;;;;;5083795;28;20494;-71
2022/10/17 09:06:59;;;;;;;3.40;2.30;;;;;;;;;;5087860;28;20501;-70
2022/10/17 09:09:34;;;;;;;4.80;2.87;;;;;;;;;;5076632;28;20538;-71
2022/10/17 09:12:16;;;;;;;7.10;1.60;;;;;;;;;;5077490;28;21730;-70
2022/10/17 09:14:52;;;;;;;4.07;2.40;;;;;;;;;;5079163;28;20874;-71
2022/10/17 09:17:36;;;;;;;4.57;3.17;;;;;;;;;;5069987;28;20467;-70
2022/10/17 09:20:13;;;;;;;13.73;3.60;;;;;;;;;;5070909;28;20464;-70
2022/10/17 09:22:48;;;;;;;4.87;2.97;;;;;;;;;;5085400;28;20462;-72
2022/10/17 09:25:24;;;;;;;4.03;2.10;;;;;;;;;;5090537;28;20467;-71
2022/10/17 09:28:04;;;;;;;3.47;2.87;;;;;;;;;;5073759;28;20475;-71
2022/10/17 09:30:41;;;;;;;3.00;2.33;;;;;;;;;;5086573;28;20455;-73
2022/10/17 09:33:21;;;;;;;4.00;2.80;;;;;;;;;;5092055;28;20862;-73
2022/10/17 09:35:53;;;;;;;5.27;2.57;;;;;;;;;;5091096;28;20451;-72
2022/10/17 09:38:21;;;;;;;7.03;2.37;;;;;;;;;;5077501;28;20484;-72
2022/10/17 09:40:54;;;;;;;4.53;2.70;;;;;;;;;;5076925;28;20441;-72
2022/10/17 09:43:28;;;;;;;5.57;2.43;;;;;;;;;;5095528;28;20578;-72
2022/10/17 09:46:05;;;;;;;4.60;4.20;;;;;;;;;;5092035;28;20867;-72
2022/10/17 09:48:41;;;;;;;3.67;2.30;;;;;;;;;;5085715;28;20479;-72
2022/10/17 09:51:09;;;;;;;6.03;2.50;;;;;;;;;;5095409;28;20486;-73
2022/10/17 09:53:38;;;;;;;4.20;2.63;;;;;;;;;;5095683;28;20734;-71
2022/10/17 09:56:09;;;;;;;3.40;2.43;;;;;;;;;;5096121;28;20883;-72
2022/10/17 09:58:57;;;;;;;3.13;2.23;;;;;;;;;;5094998;28;20715;-73
2022/10/17 10:01:25;;;;;;;3.70;2.57;;;;;;;;;;5088275;28;20463;-74
2022/10/17 10:04:07;;;;;;;5.97;2.47;;;;;;;;;;5087099;28;20571;-74
2022/10/17 10:06:57;;;;;;;;;;;;;;;;;;;;;
2022/10/17 10:09:26;;;;;;;4.53;3.07;;;;;;;;;;5066499;28;20773;-74
2022/10/17 10:12:00;;;;;;;3.60;1.73;;;;;;;;;;5070060;28;20629;-73
2022/10/17 10:14:32;;;;;;;2.70;2.33;;;;;;;;;;5071331;28;20477;-71
2022/10/17 10:17:01;;;;;;;6.83;3.00;;;;;;;;;;5072157;28;21882;-74
2022/10/17 10:19:31;;;;;;;4.60;2.37;;;;;;;;;;5070263;28;20469;-73
2022/10/17 10:22:01;;;;;;;5.30;2.60;;;;;;;;;;5072066;28;20792;-74
2022/10/17 10:24:30;;;;;;;6.83;2.50;;;;;;;;;;5071623;28;20944;-73
2022/10/17 10:27:03;;;;;;;5.90;2.33;;;;;;;;;;5071267;28;20460;-73
2022/10/17 10:29:34;;;;;;;6.40;2.90;;;;;;;;;;5072435;28;20472;-73
2022/10/17 10:32:09;;;;;;;9.47;3.50;;;;;;;;;;5070211;28;20469;-73
2022/10/17 10:34:41;;;;;;;3.23;2.40;;;;;;;;;;5051856;28;20457;-73
2022/10/17 10:37:28;;;;;;;3.73;2.10;;;;;;;;;;5067555;28;20876;-73
2022/10/17 10:39:57;;;;;;;5.13;2.37;;;;;;;;;;5071424;28;20459;-74
2022/10/17 10:42:26;;;;;;;3.57;2.97;;;;;;;;;;5071551;28;20453;-74
2022/10/17 10:44:58;;;;;;;4.90;3.57;;;;;;;;;;5072952;28;20535;-73
2022/10/17 10:47:30;;;;;;;4.83;2.60;;;;;;;;;;5072804;28;20581;-73
2022/10/17 10:50:18;;;;;;;7.83;3.50;;;;;;;;;;5072634;28;20546;-73
2022/10/17 10:52:48;;;;;;;6.07;2.53;;;;;;;;;;5067743;28;20548;-73
2022/10/17 10:55:17;;;;;;;4.37;2.33;;;;;;;;;;5064081;28;20553;-73
2022/10/17 10:57:46;;;;;;;3.63;2.17;;;;;;;;;;5072900;28;20479;-73
2022/10/17 11:00:15;;;;;;;6.60;2.90;;;;;;;;;;5071861;28;20440;-73
2022/10/17 11:02:46;;;;;;;5.53;3.77;;;;;;;;;;5065078;28;20547;-74
2022/10/17 11:05:21;;;;;;;6.83;3.37;;;;;;;;;;5068118;28;20480;-73
2022/10/17 11:07:51;;;;;;;4.50;3.40;;;;;;;;;;5072728;28;20498;-72
2022/10/17 11:10:22;;;;;;;4.90;2.50;;;;;;;;;;5067770;28;20485;-72
2022/10/17 11:12:52;;;;;;;6.90;3.07;;;;;;;;;;5071590;28;20452;-72
2022/10/17 11:15:24;;;;;;;7.70;2.83;;;;;;;;;;5071403;28;20479;-73
2022/10/17 11:17:56;;;;;;;7.60;3.40;;;;;;;;;;5059968;28;20460;-74
2022/10/17 11:20:28;;;;;;;3.90;2.43;;;;;;;;;;5052381;28;20520;-73
2022/10/17 11:22:58;;;;;;;14.00;4.30;;;;;;;;;;5061655;28;20517;-73
2022/10/17 11:25:31;;;;;;;8.80;5.60;;;;;;;;;;5072765;28;20548;-73
2022/10/17 11:27:59;;;;;;;7.03;4.30;;;;;;;;;;5072181;28;20484;-72
2022/10/17 11:30:29;;;;;;;5.03;4.43;;;;;;;;;;5071240;28;20460;-73
2022/10/17 11:33:01;;;;;;;4.57;2.80;;;;;;;;;;5062169;28;20971;-74
2022/10/17 11:35:30;;;;;;;3.90;2.37;;;;;;;;;;5071512;28;20570;-72
2022/10/17 11:38:03;;;;;;;4.67;2.30;;;;;;;;;;5072363;28;20449;-72
2022/10/17 11:40:32;;;;;;;3.07;2.20;;;;;;;;;;5071873;28;20593;-72
2022/10/17 11:43:01;;;;;;;8.73;4.00;;;;;;;;;;5068451;28;20538;-73
2022/10/17 11:45:41;;;;;;;4.13;2.90;;;;;;;;;;5069184;28;20499;-72
2022/10/17 11:48:12;;;;;;;4.70;2.23;;;;;;;;;;5072831;28;20452;-73
2022/10/17 11:50:42;;;;;;;7.53;2.30;;;;;;;;;;5064624;28;20889;-73
2022/10/17 11:53:13;;;;;;;5.27;2.87;;;;;;;;;;5061074;28;20470;-72
2022/10/17 11:55:40;;;;;;;10.23;4.27;;;;;;;;;;5067097;28;20552;-73
2022/10/17 11:58:18;;;;;;;11.20;4.27;;;;;;;;;;5058711;28;20488;-72
2022/10/17 12:00:54;;;;;;;6.10;2.80;;;;;;;;;;5072558;28;20467;-73
2022/10/17 12:03:27;;;;;;;37.77;19.90;;;;;;;;;;5065379;28;20539;-73
2022/10/17 12:05:57;;;;;;;4.40;3.20;;;;;;;;;;5070724;28;20455;-73
2022/10/17 12:08:33;;;;;;;6.83;3.30;;;;;;;;;;5068246;28;20519;-73
2022/10/17 12:11:10;;;;;;;7.97;3.57;;;;;;;;;;5070718;28;20476;-74
2022/10/17 12:13:53;;;;;;;10.53;5.87;;;;;;;;;;5055614;28;20544;-75
2022/10/17 12:16:40;;;;;;;3.90;2.80;;;;;;;;;;5069180;28;20819;-73
2022/10/17 12:19:21;;;;;;;3.90;2.63;;;;;;;;;;5051183;28;20456;-73
2022/10/17 12:21:56;;;;;;;4.03;3.00;;;;;;;;;;5051208;28;20461;-73
2022/10/17 12:24:29;;;;;;;3.80;2.40;;;;;;;;;;5053102;28;20877;-72
2022/10/17 12:26:58;;;;;;;4.70;2.80;;;;;;;;;;5062855;28;20468;-73
2022/10/17 12:29:28;;;;;;;5.00;3.00;;;;;;;;;;5071407;28;21023;-73
2022/10/17 12:31:55;;;;;;;6.70;4.50;;;;;;;;;;5071175;28;20468;-72
2022/10/17 12:34:23;;;;;;;11.37;4.67;;;;;;;;;;5066176;28;20740;-72
2022/10/17 12:36:53;;;;;;;6.03;2.67;;;;;;;;;;5062609;28;20464;-71
2022/10/17 12:39:51;;;;;;;7.30;2.23;;;;;;;;;;5065473;28;20454;-72
2022/10/17 12:42:36;;;;;;;6.47;3.90;;;;;;;;;;5058926;28;20537;-73
2022/10/17 12:45:35;;;;;;;9.00;3.80;;;;;;;;;;5059154;28;20480;-73
2022/10/17 12:48:02;;;;;;;4.80;3.63;;;;;;;;;;5058180;28;20464;-72
2022/10/17 12:50:49;;;;;;;9.03;3.33;;;;;;;;;;5067327;28;20477;-73
2022/10/17 12:53:17;;;;;;;2.97;2.43;;;;;;;;;;5064514;28;20470;-73
2022/10/17 12:55:44;;;;;;;4.87;2.30;;;;;;;;;;5069082;28;21029;-73
2022/10/17 12:58:14;;;;;;;9.93;2.80;;;;;;;;;;5070408;28;20464;-73
2022/10/17 13:00:45;;;;;;;8.40;3.10;;;;;;;;;;5071110;28;20465;-73
2022/10/17 13:03:20;;;;;;;3.60;2.63;;;;;;;;;;5068648;28;20947;-73
2022/10/17 13:05:50;;;;;;;3.90;2.40;;;;;;;;;;5070341;28;20473;-72
2022/10/17 13:08:19;;;;;;;3.33;2.33;;;;;;;;;;5070959;28;21087;-72
2022/10/17 13:10:51;;;;;;;11.33;3.13;;;;;;;;;;5069721;28;20456;-72
2022/10/17 13:13:34;;;;;;;3.90;2.30;;;;;;;;;;5070872;28;20460;-71
2022/10/17 13:16:25;;;;;;;6.43;4.63;;;;;;;;;;5071799;28;20468;-72
2022/10/17 13:18:56;;;;;;;3.87;2.50;;;;;;;;;;5074096;28;20463;-72
2022/10/17 13:21:25;;;;;;;3.37;2.30;;;;;;;;;;5073579;28;20456;-72
2022/10/17 13:24:03;;;;;;;6.70;2.60;;;;;;;;;;5070461;28;20537;-72
2022/10/17 13:26:32;;;;;;;9.30;3.40;;;;;;;;;;5060129;28;20456;-72
2022/10/17 13:29:34;;;;;;;8.10;2.80;;;;;;;;;;5072860;28;20550;-72
2022/10/17 13:32:11;;;;;;;5.23;2.87;;;;;;;;;;5058676;28;20495;-70
2022/10/17 13:34:39;;;;;;;4.30;2.60;;;;;;;;;;5075384;28;20513;-71
2022/10/17 13:37:08;;;;;;;6.13;3.60;;;;;;;;;;5072336;28;20461;-70
2022/10/17 13:39:38;;;;;;;5.77;3.00;;;;;;;;;;5064510;28;20468;-71
2022/10/17 13:42:07;;;;;;;3.57;2.30;;;;;;;;;;5071229;28;20460;-71
2022/10/17 13:44:35;;;;;;;3.60;2.57;;;;;;;;;;5080261;28;20484;-71
2022/10/17 13:47:03;;;;;;;6.30;3.00;;;;;;;;;;5072965;28;20459;-71
2022/10/17 13:49:35;;;;;;;8.17;4.67;;;;;;;;;;5075586;28;20456;-71
2022/10/17 13:52:23;;;;;;;3.80;2.70;;;;;;;;;;5066779;28;20529;-71
2022/10/17 13:54:54;;;;;;;4.77;4.00;;;;;;;;;;5062855;28;20460;-72
2022/10/17 13:57:25;;;;;;;6.70;2.70;;;;;;;;;;5073945;28;20500;-72
2022/10/17 13:59:58;;;;;;;4.90;3.40;;;;;;;;;;5074285;28;20452;-71
2022/10/17 14:02:27;;;;;;;8.90;3.80;;;;;;;;;;5073587;28;20460;-71
2022/10/17 14:05:02;;;;;;;4.27;3.67;;;;;;;;;;5069500;28;20628;-71
2022/10/17 14:07:31;;;;;;;6.40;3.90;;;;;;;;;;5063506;28;20465;-71
2022/10/17 14:09:59;;;;;;;7.77;4.20;;;;;;;;;;5073917;28;20508;-72
2022/10/17 14:12:27;;;;;;;6.10;4.27;;;;;;;;;;5073175;28;20460;-71
2022/10/17 14:14:57;;;;;;;9.30;4.20;;;;;;;;;;5073045;28;21036;-71
2022/10/17 14:17:26;;;;;;;5.33;4.23;;;;;;;;;;5075004;28;20521;-72
2022/10/17 14:19:56;;;;;;;5.90;4.17;;;;;;;;;;5068279;28;20452;-72
2022/10/17 14:22:29;;;;;;;8.53;4.73;;;;;;;;;;5072707;28;20493;-71
2022/10/17 14:24:59;;;;;;;5.40;4.73;;;;;;;;;;5073324;28;20740;-72
2022/10/17 14:27:43;;;;;;;5.87;5.00;;;;;;;;;;5071461;28;20451;-72
2022/10/17 14:30:26;;;;;;;6.97;4.30;;;;;;;;;;5070455;28;20490;-72
2022/10/17 14:33:02;;;;;;;5.40;4.23;;;;;;;;;;5069406;28;20465;-71
2022/10/17 14:35:31;;;;;;;8.70;4.23;;;;;;;;;;5070864;28;20460;-72
2022/10/17 14:38:00;;;;;;;6.67;4.60;;;;;;;;;;5070508;28;20448;-72
2022/10/17 14:43:20;;;;;;;9.63;4.83;;;;;;;;;;5068254;28;20554;-71
2022/10/17 14:45:48;;;;;;;6.27;4.63;;;;;;;;;;5072146;28;20444;-71
2022/10/17 14:48:18;;;;;;;8.17;4.97;;;;;;;;;;5072077;28;20472;-71
2022/10/17 14:51:03;;;;;;;8.90;5.50;;;;;;;;;;5072158;28;20513;-71
2022/10/17 14:53:31;;;;;;;8.30;5.30;;;;;;;;;;5071909;28;21228;-72
2022/10/17 14:56:07;;;;;;;6.10;5.17;;;;;;;;;;5068428;28;20586;-71
2022/10/17 14:58:41;;;;;;;6.20;4.40;;;;;;;;;;5068973;28;20456;-72
2022/10/17 15:01:15;;;;;;;7.17;3.73;;;;;;;;;;5066425;28;20453;-72
2022/10/17 15:03:49;;;;;;;7.53;4.00;;;;;;;;;;5069274;28;20934;-72
2022/10/17 15:06:24;;;;;;;4.53;4.10;;;;;;;;;;5066488;28;20451;-71
2022/10/17 15:09:06;;;;;;;5.40;4.67;;;;;;;;;;5072103;28;20937;-72